sensor_id;sensor_type;location;lat;lon;timestamp;P1;durP1;ratioP1;P2;durP2;ratioP2
65077;SDS011;51672;51.230;-2.322;2022-07-06T00:02:52;3.63;;;0.97;;
65077;SDS011;51672;51.230;-2.322;2022-07-06T00:06:34;3.83;;;0.80;;
65077;SDS011;51672;51.230;-2.322;2022-07-06T00:10:16;5.47;;;0.90;;
65077;SDS011;51672;51.230;-2.322;2022-07-06T00:13:58;3.20;;;0.90;;
65077;SDS011;51672;51.230;-2.322;2022-07-06T00:17:40;3.67;;;1.40;;
65077;SDS011;51672;51.230;-2.322;2022-07-06T00:21:22;4.57;;;1.13;;
65077;SDS011;51672;51.230;-2.322;2022-07-06T00:25:04;4.10;;;1.02;;
65077;SDS011;51672;51.230;-2.322;2022-07-06T00:28:47;3.40;;;0.73;;
65077;SDS011;51672;51.230;-2.322;2022-07-06T00:32:29;3.58;;;0.90;;
65077;SDS011;51672;51.230;-2.322;2022-07-06T00:36:11;3.72;;;0.85;;
65077;SDS011;51672;51.230;-2.322;2022-07-06T00:39:53;4.77;;;0.93;;
65077;SDS011;51672;51.230;-2.322;2022-07-06T00:47:33;3.60;;;1.10;;
65077;SDS011;51672;51.230;-2.322;2022-07-06T00:51:15;3.13;;;0.88;;
65077;SDS011;51672;51.230;-2.322;2022-07-06T00:54:58;3.20;;;0.93;;
65077;SDS011;51672;51.230;-2.322;2022-07-06T00:58:43;3.80;;;1.20;;
65077;SDS011;51672;51.230;-2.322;2022-07-06T01:02:26;3.65;;;1.10;;
65077;SDS011;51672;51.230;-2.322;2022-07-06T01:06:08;3.70;;;1.20;;
65077;SDS011;51672;51.230;-2.322;2022-07-06T01:09:50;3.10;;;0.90;;
65077;SDS011;51672;51.230;-2.322;2022-07-06T01:13:32;3.83;;;1.10;;
65077;SDS011;51672;51.230;-2.322;2022-07-06T01:17:15;3.30;;;1.10;;
65077;SDS011;51672;51.230;-2.322;2022-07-06T01:21:11;3.42;;;1.10;;
65077;SDS011;51672;51.230;-2.322;2022-07-06T01:24:54;3.72;;;1.08;;
65077;SDS011;51672;51.230;-2.322;2022-07-06T01:28:36;3.33;;;1.13;;
65077;SDS011;51672;51.230;-2.322;2022-07-06T01:32:18;3.97;;;1.40;;
65077;SDS011;51672;51.230;-2.322;2022-07-06T01:36:00;3.70;;;1.30;;
65077;SDS011;51672;51.230;-2.322;2022-07-06T01:39:42;4.10;;;1.17;;
65077;SDS011;51672;51.230;-2.322;2022-07-06T01:43:24;3.70;;;1.10;;
65077;SDS011;51672;51.230;-2.322;2022-07-06T01:47:06;3.80;;;1.42;;
65077;SDS011;51672;51.230;-2.322;2022-07-06T01:50:48;3.80;;;1.30;;
65077;SDS011;51672;51.230;-2.322;2022-07-06T01:54:30;4.10;;;1.30;;
65077;SDS011;51672;51.230;-2.322;2022-07-06T01:58:12;5.00;;;1.40;;
65077;SDS011;51672;51.230;-2.322;2022-07-06T02:01:54;5.32;;;1.40;;
65077;SDS011;51672;51.230;-2.322;2022-07-06T02:05:36;3.83;;;1.20;;
65077;SDS011;51672;51.230;-2.322;2022-07-06T02:09:18;3.88;;;1.20;;
65077;SDS011;51672;51.230;-2.322;2022-07-06T02:12:59;3.75;;;1.27;;
65077;SDS011;51672;51.230;-2.322;2022-07-06T02:16:41;3.22;;;0.90;;
65077;SDS011;51672;51.230;-2.322;2022-07-06T02:20:24;4.17;;;1.30;;
65077;SDS011;51672;51.230;-2.322;2022-07-06T02:24:06;4.22;;;1.50;;
65077;SDS011;51672;51.230;-2.322;2022-07-06T02:27:48;3.80;;;1.20;;
65077;SDS011;51672;51.230;-2.322;2022-07-06T02:31:29;3.80;;;1.50;;
65077;SDS011;51672;51.230;-2.322;2022-07-06T02:35:12;4.25;;;1.35;;
65077;SDS011;51672;51.230;-2.322;2022-07-06T02:38:54;4.00;;;1.60;;
65077;SDS011;51672;51.230;-2.322;2022-07-06T02:42:35;4.22;;;1.70;;
65077;SDS011;51672;51.230;-2.322;2022-07-06T02:46:18;4.20;;;1.75;;
65077;SDS011;51672;51.230;-2.322;2022-07-06T02:50:00;4.38;;;1.60;;
65077;SDS011;51672;51.230;-2.322;2022-07-06T02:53:42;4.30;;;1.52;;
65077;SDS011;51672;51.230;-2.322;2022-07-06T02:57:24;4.30;;;1.57;;
65077;SDS011;51672;51.230;-2.322;2022-07-06T03:01:06;3.92;;;1.60;;
65077;SDS011;51672;51.230;-2.322;2022-07-06T03:04:48;5.45;;;1.70;;
65077;SDS011;51672;51.230;-2.322;2022-07-06T03:08:31;3.63;;;1.27;;
65077;SDS011;51672;51.230;-2.322;2022-07-06T03:12:15;4.15;;;1.38;;
65077;SDS011;51672;51.230;-2.322;2022-07-06T03:15:57;3.85;;;1.20;;
65077;SDS011;51672;51.230;-2.322;2022-07-06T03:19:39;4.30;;;1.40;;
65077;SDS011;51672;51.230;-2.322;2022-07-06T03:23:21;4.60;;;1.50;;
65077;SDS011;51672;51.230;-2.322;2022-07-06T03:27:03;9.20;;;1.50;;
65077;SDS011;51672;51.230;-2.322;2022-07-06T03:30:46;4.72;;;1.80;;
65077;SDS011;51672;51.230;-2.322;2022-07-06T03:34:27;4.53;;;1.80;;
65077;SDS011;51672;51.230;-2.322;2022-07-06T03:38:09;7.03;;;2.53;;
65077;SDS011;51672;51.230;-2.322;2022-07-06T03:41:51;5.22;;;2.30;;
65077;SDS011;51672;51.230;-2.322;2022-07-06T03:45:33;5.33;;;2.10;;
65077;SDS011;51672;51.230;-2.322;2022-07-06T03:49:15;4.75;;;2.05;;
65077;SDS011;51672;51.230;-2.322;2022-07-06T03:52:57;5.20;;;1.42;;
65077;SDS011;51672;51.230;-2.322;2022-07-06T03:56:39;5.45;;;1.70;;
65077;SDS011;51672;51.230;-2.322;2022-07-06T04:00:21;7.78;;;1.80;;
65077;SDS011;51672;51.230;-2.322;2022-07-06T04:04:03;5.13;;;1.80;;
65077;SDS011;51672;51.230;-2.322;2022-07-06T04:07:45;5.32;;;1.98;;
65077;SDS011;51672;51.230;-2.322;2022-07-06T04:11:27;6.60;;;1.77;;
65077;SDS011;51672;51.230;-2.322;2022-07-06T04:15:10;6.22;;;1.85;;
65077;SDS011;51672;51.230;-2.322;2022-07-06T04:18:52;5.75;;;1.67;;
65077;SDS011;51672;51.230;-2.322;2022-07-06T04:22:38;4.80;;;2.10;;
65077;SDS011;51672;51.230;-2.322;2022-07-06T04:26:20;7.07;;;2.25;;
65077;SDS011;51672;51.230;-2.322;2022-07-06T04:30:02;5.22;;;2.10;;
65077;SDS011;51672;51.230;-2.322;2022-07-06T04:33:46;4.93;;;2.22;;
65077;SDS011;51672;51.230;-2.322;2022-07-06T04:37:28;5.65;;;2.28;;
65077;SDS011;51672;51.230;-2.322;2022-07-06T04:41:10;5.25;;;2.08;;
65077;SDS011;51672;51.230;-2.322;2022-07-06T04:44:51;6.43;;;2.58;;
65077;SDS011;51672;51.230;-2.322;2022-07-06T04:48:33;5.97;;;2.33;;
65077;SDS011;51672;51.230;-2.322;2022-07-06T04:52:20;6.03;;;2.47;;
65077;SDS011;51672;51.230;-2.322;2022-07-06T04:56:02;7.03;;;2.33;;
65077;SDS011;51672;51.230;-2.322;2022-07-06T04:59:45;5.93;;;2.10;;
65077;SDS011;51672;51.230;-2.322;2022-07-06T05:03:27;7.47;;;2.10;;
65077;SDS011;51672;51.230;-2.322;2022-07-06T05:07:09;6.85;;;2.78;;
65077;SDS011;51672;51.230;-2.322;2022-07-06T05:10:51;5.40;;;2.55;;
65077;SDS011;51672;51.230;-2.322;2022-07-06T05:14:33;7.57;;;2.40;;
65077;SDS011;51672;51.230;-2.322;2022-07-06T05:18:15;7.05;;;2.53;;
65077;SDS011;51672;51.230;-2.322;2022-07-06T05:21:57;7.00;;;3.30;;
65077;SDS011;51672;51.230;-2.322;2022-07-06T05:25:39;8.80;;;2.70;;
65077;SDS011;51672;51.230;-2.322;2022-07-06T05:29:21;7.60;;;3.10;;
65077;SDS011;51672;51.230;-2.322;2022-07-06T05:33:03;8.57;;;2.60;;
65077;SDS011;51672;51.230;-2.322;2022-07-06T05:36:45;7.37;;;2.50;;
65077;SDS011;51672;51.230;-2.322;2022-07-06T05:40:27;6.53;;;2.40;;
65077;SDS011;51672;51.230;-2.322;2022-07-06T05:44:09;6.90;;;2.95;;
65077;SDS011;51672;51.230;-2.322;2022-07-06T05:47:51;5.22;;;2.45;;
65077;SDS011;51672;51.230;-2.322;2022-07-06T05:55:44;6.28;;;2.50;;
65077;SDS011;51672;51.230;-2.322;2022-07-06T05:59:26;6.18;;;2.10;;
65077;SDS011;51672;51.230;-2.322;2022-07-06T06:07:23;4.90;;;2.20;;
65077;SDS011;51672;51.230;-2.322;2022-07-06T06:11:13;4.72;;;1.80;;
65077;SDS011;51672;51.230;-2.322;2022-07-06T06:14:55;4.63;;;1.80;;
65077;SDS011;51672;51.230;-2.322;2022-07-06T06:18:37;4.50;;;1.95;;
65077;SDS011;51672;51.230;-2.322;2022-07-06T06:22:29;4.95;;;2.30;;
65077;SDS011;51672;51.230;-2.322;2022-07-06T06:26:11;4.20;;;1.50;;
65077;SDS011;51672;51.230;-2.322;2022-07-06T06:29:53;3.90;;;1.70;;
65077;SDS011;51672;51.230;-2.322;2022-07-06T06:33:45;7.00;;;2.17;;
65077;SDS011;51672;51.230;-2.322;2022-07-06T06:37:28;7.53;;;1.90;;
65077;SDS011;51672;51.230;-2.322;2022-07-06T06:41:11;6.07;;;1.87;;
65077;SDS011;51672;51.230;-2.322;2022-07-06T06:49:11;5.20;;;1.98;;
65077;SDS011;51672;51.230;-2.322;2022-07-06T06:56:52;6.38;;;1.73;;
65077;SDS011;51672;51.230;-2.322;2022-07-06T07:09:30;4.70;;;1.00;;
65077;SDS011;51672;51.230;-2.322;2022-07-06T07:13:30;3.20;;;1.10;;
65077;SDS011;51672;51.230;-2.322;2022-07-06T07:17:12;3.70;;;1.33;;
65077;SDS011;51672;51.230;-2.322;2022-07-06T07:24:58;3.30;;;1.00;;
65077;SDS011;51672;51.230;-2.322;2022-07-06T07:28:40;2.80;;;0.60;;
65077;SDS011;51672;51.230;-2.322;2022-07-06T07:32:49;2.80;;;0.80;;
65077;SDS011;51672;51.230;-2.322;2022-07-06T07:36:31;2.60;;;1.00;;
65077;SDS011;51672;51.230;-2.322;2022-07-06T07:48:37;2.83;;;0.80;;
65077;SDS011;51672;51.230;-2.322;2022-07-06T07:56:31;3.05;;;1.10;;
65077;SDS011;51672;51.230;-2.322;2022-07-06T08:04:21;3.17;;;0.80;;
65077;SDS011;51672;51.230;-2.322;2022-07-06T08:08:04;2.95;;;0.70;;
65077;SDS011;51672;51.230;-2.322;2022-07-06T08:12:04;3.25;;;0.80;;
65077;SDS011;51672;51.230;-2.322;2022-07-06T08:15:47;3.20;;;1.30;;
65077;SDS011;51672;51.230;-2.322;2022-07-06T08:23:33;3.78;;;0.90;;
65077;SDS011;51672;51.230;-2.322;2022-07-06T08:36:15;3.50;;;1.50;;
65077;SDS011;51672;51.230;-2.322;2022-07-06T08:40:14;2.88;;;1.20;;
65077;SDS011;51672;51.230;-2.322;2022-07-06T08:43:56;3.90;;;1.03;;
65077;SDS011;51672;51.230;-2.322;2022-07-06T08:51:41;4.97;;;0.93;;
65077;SDS011;51672;51.230;-2.322;2022-07-06T08:59:32;4.70;;;1.10;;
65077;SDS011;51672;51.230;-2.322;2022-07-06T09:03:15;3.00;;;0.90;;
65077;SDS011;51672;51.230;-2.322;2022-07-06T09:07:16;2.45;;;0.57;;
65077;SDS011;51672;51.230;-2.322;2022-07-06T09:15:27;2.95;;;1.10;;
65077;SDS011;51672;51.230;-2.322;2022-07-06T09:23:15;3.33;;;1.20;;
65077;SDS011;51672;51.230;-2.322;2022-07-06T09:31:07;2.92;;;0.80;;
65077;SDS011;51672;51.230;-2.322;2022-07-06T09:43:30;2.75;;;1.02;;
65077;SDS011;51672;51.230;-2.322;2022-07-06T09:51:24;3.70;;;1.20;;
65077;SDS011;51672;51.230;-2.322;2022-07-06T09:59:20;2.72;;;1.05;;
65077;SDS011;51672;51.230;-2.322;2022-07-06T10:11:45;2.60;;;0.85;;
65077;SDS011;51672;51.230;-2.322;2022-07-06T10:19:35;2.87;;;0.83;;
65077;SDS011;51672;51.230;-2.322;2022-07-06T10:31:57;3.60;;;0.70;;
65077;SDS011;51672;51.230;-2.322;2022-07-06T10:39:52;3.88;;;1.00;;
65077;SDS011;51672;51.230;-2.322;2022-07-06T10:44:15;2.93;;;0.90;;
65077;SDS011;51672;51.230;-2.322;2022-07-06T10:52:12;4.28;;;1.10;;
65077;SDS011;51672;51.230;-2.322;2022-07-06T11:04:37;3.75;;;1.20;;
65077;SDS011;51672;51.230;-2.322;2022-07-06T11:12:30;4.33;;;1.07;;
65077;SDS011;51672;51.230;-2.322;2022-07-06T11:16:13;3.67;;;1.27;;
65077;SDS011;51672;51.230;-2.322;2022-07-06T11:20:22;4.75;;;1.45;;
65077;SDS011;51672;51.230;-2.322;2022-07-06T11:24:05;3.80;;;1.10;;
65077;SDS011;51672;51.230;-2.322;2022-07-06T11:28:16;5.07;;;1.10;;
65077;SDS011;51672;51.230;-2.322;2022-07-06T11:31:59;4.45;;;1.13;;
65077;SDS011;51672;51.230;-2.322;2022-07-06T11:36:17;3.85;;;1.10;;
65077;SDS011;51672;51.230;-2.322;2022-07-06T11:44:06;3.60;;;1.05;;
65077;SDS011;51672;51.230;-2.322;2022-07-06T11:52:15;6.83;;;0.90;;
65077;SDS011;51672;51.230;-2.322;2022-07-06T11:56:24;4.40;;;1.00;;
65077;SDS011;51672;51.230;-2.322;2022-07-06T12:00:09;6.63;;;1.10;;
65077;SDS011;51672;51.230;-2.322;2022-07-06T12:04:17;2.93;;;0.60;;
65077;SDS011;51672;51.230;-2.322;2022-07-06T12:12:11;2.90;;;0.80;;
65077;SDS011;51672;51.230;-2.322;2022-07-06T12:15:53;3.08;;;0.70;;
65077;SDS011;51672;51.230;-2.322;2022-07-06T12:19:54;3.78;;;0.98;;
65077;SDS011;51672;51.230;-2.322;2022-07-06T12:23:44;3.97;;;1.17;;
65077;SDS011;51672;51.230;-2.322;2022-07-06T12:35:52;3.22;;;0.85;;
65077;SDS011;51672;51.230;-2.322;2022-07-06T12:43:44;4.55;;;1.17;;
65077;SDS011;51672;51.230;-2.322;2022-07-06T12:47:27;3.72;;;1.30;;
65077;SDS011;51672;51.230;-2.322;2022-07-06T12:51:26;2.57;;;0.70;;
65077;SDS011;51672;51.230;-2.322;2022-07-06T12:55:08;4.03;;;0.85;;
65077;SDS011;51672;51.230;-2.322;2022-07-06T13:03:03;5.35;;;1.45;;
65077;SDS011;51672;51.230;-2.322;2022-07-06T13:10:59;4.68;;;1.70;;
65077;SDS011;51672;51.230;-2.322;2022-07-06T13:18:39;3.30;;;0.90;;
65077;SDS011;51672;51.230;-2.322;2022-07-06T13:22:21;3.92;;;1.08;;
65077;SDS011;51672;51.230;-2.322;2022-07-06T13:26:21;3.83;;;1.08;;
65077;SDS011;51672;51.230;-2.322;2022-07-06T13:30:03;5.73;;;0.90;;
65077;SDS011;51672;51.230;-2.322;2022-07-06T13:37:50;4.68;;;1.25;;
65077;SDS011;51672;51.230;-2.322;2022-07-06T13:45:41;4.17;;;1.03;;
65077;SDS011;51672;51.230;-2.322;2022-07-06T13:49:23;8.30;;;3.90;;
65077;SDS011;51672;51.230;-2.322;2022-07-06T13:53:23;4.38;;;1.70;;
65077;SDS011;51672;51.230;-2.322;2022-07-06T13:57:05;2.77;;;0.80;;
65077;SDS011;51672;51.230;-2.322;2022-07-06T14:04:58;3.75;;;1.00;;
65077;SDS011;51672;51.230;-2.322;2022-07-06T14:12:46;5.35;;;1.52;;
65077;SDS011;51672;51.230;-2.322;2022-07-06T14:25:08;4.70;;;1.63;;
65077;SDS011;51672;51.230;-2.322;2022-07-06T14:33:03;6.00;;;1.95;;
65077;SDS011;51672;51.230;-2.322;2022-07-06T14:40:52;6.40;;;1.35;;
65077;SDS011;51672;51.230;-2.322;2022-07-06T14:44:34;4.88;;;0.82;;
65077;SDS011;51672;51.230;-2.322;2022-07-06T14:48:35;4.10;;;1.00;;
65077;SDS011;51672;51.230;-2.322;2022-07-06T14:52:18;3.80;;;0.90;;
65077;SDS011;51672;51.230;-2.322;2022-07-06T15:00:00;4.70;;;1.10;;
65077;SDS011;51672;51.230;-2.322;2022-07-06T15:03:43;4.28;;;0.95;;
65077;SDS011;51672;51.230;-2.322;2022-07-06T15:07:44;7.72;;;1.38;;
65077;SDS011;51672;51.230;-2.322;2022-07-06T15:11:34;4.68;;;1.13;;
65077;SDS011;51672;51.230;-2.322;2022-07-06T15:28:14;3.93;;;1.10;;
65077;SDS011;51672;51.230;-2.322;2022-07-06T15:36:06;4.15;;;1.45;;
65077;SDS011;51672;51.230;-2.322;2022-07-06T15:53:01;6.88;;;1.35;;
65077;SDS011;51672;51.230;-2.322;2022-07-06T16:00:54;3.53;;;1.20;;
65077;SDS011;51672;51.230;-2.322;2022-07-06T16:08:48;4.77;;;1.50;;
65077;SDS011;51672;51.230;-2.322;2022-07-06T16:16:41;4.97;;;1.10;;
65077;SDS011;51672;51.230;-2.322;2022-07-06T16:24:34;6.05;;;1.27;;
65077;SDS011;51672;51.230;-2.322;2022-07-06T16:36:56;6.63;;;1.10;;
65077;SDS011;51672;51.230;-2.322;2022-07-06T16:44:49;6.00;;;1.10;;
65077;SDS011;51672;51.230;-2.322;2022-07-06T16:53:00;3.93;;;1.00;;
65077;SDS011;51672;51.230;-2.322;2022-07-06T16:57:09;4.50;;;1.00;;
65077;SDS011;51672;51.230;-2.322;2022-07-06T17:00:51;6.00;;;1.15;;
65077;SDS011;51672;51.230;-2.322;2022-07-06T17:13:16;6.55;;;1.45;;
65077;SDS011;51672;51.230;-2.322;2022-07-06T17:17:16;5.07;;;0.98;;
65077;SDS011;51672;51.230;-2.322;2022-07-06T17:20:58;6.70;;;1.20;;
65077;SDS011;51672;51.230;-2.322;2022-07-06T17:28:44;7.45;;;1.23;;
65077;SDS011;51672;51.230;-2.322;2022-07-06T17:32:26;7.22;;;1.23;;
65077;SDS011;51672;51.230;-2.322;2022-07-06T17:36:35;15.10;;;5.50;;
65077;SDS011;51672;51.230;-2.322;2022-07-06T17:40:17;6.03;;;1.75;;
65077;SDS011;51672;51.230;-2.322;2022-07-06T17:44:28;5.47;;;1.40;;
65077;SDS011;51672;51.230;-2.322;2022-07-06T17:48:10;6.10;;;1.37;;
65077;SDS011;51672;51.230;-2.322;2022-07-06T18:00:35;6.57;;;1.70;;
65077;SDS011;51672;51.230;-2.322;2022-07-06T18:04:35;5.55;;;1.27;;
65077;SDS011;51672;51.230;-2.322;2022-07-06T18:08:17;6.80;;;1.15;;
65077;SDS011;51672;51.230;-2.322;2022-07-06T18:16:03;6.75;;;1.60;;
65077;SDS011;51672;51.230;-2.322;2022-07-06T18:23:54;9.95;;;1.42;;
65077;SDS011;51672;51.230;-2.322;2022-07-06T18:27:36;5.90;;;1.10;;
65077;SDS011;51672;51.230;-2.322;2022-07-06T18:39:42;7.77;;;1.53;;
65077;SDS011;51672;51.230;-2.322;2022-07-06T18:43:24;5.75;;;1.15;;
65077;SDS011;51672;51.230;-2.322;2022-07-06T18:47:33;5.68;;;1.30;;
65077;SDS011;51672;51.230;-2.322;2022-07-06T18:51:16;7.65;;;1.58;;
65077;SDS011;51672;51.230;-2.322;2022-07-06T18:55:16;5.80;;;1.55;;
65077;SDS011;51672;51.230;-2.322;2022-07-06T18:58:58;5.97;;;1.38;;
65077;SDS011;51672;51.230;-2.322;2022-07-06T19:06:44;6.30;;;1.50;;
65077;SDS011;51672;51.230;-2.322;2022-07-06T19:14:37;6.57;;;1.35;;
65077;SDS011;51672;51.230;-2.322;2022-07-06T19:18:19;6.03;;;1.57;;
65077;SDS011;51672;51.230;-2.322;2022-07-06T19:22:18;5.70;;;1.35;;
65077;SDS011;51672;51.230;-2.322;2022-07-06T19:26:01;7.07;;;1.40;;
65077;SDS011;51672;51.230;-2.322;2022-07-06T19:33:47;4.70;;;1.00;;
65077;SDS011;51672;51.230;-2.322;2022-07-06T19:41:39;6.05;;;1.05;;
65077;SDS011;51672;51.230;-2.322;2022-07-06T19:45:21;4.53;;;1.03;;
65077;SDS011;51672;51.230;-2.322;2022-07-06T19:49:30;7.05;;;1.40;;
65077;SDS011;51672;51.230;-2.322;2022-07-06T19:53:12;6.13;;;1.00;;
65077;SDS011;51672;51.230;-2.322;2022-07-06T20:05:19;6.32;;;0.88;;
65077;SDS011;51672;51.230;-2.322;2022-07-06T20:12:59;7.65;;;1.30;;
65077;SDS011;51672;51.230;-2.322;2022-07-06T20:16:43;5.03;;;1.10;;
65077;SDS011;51672;51.230;-2.322;2022-07-06T20:24:14;5.87;;;1.23;;
65077;SDS011;51672;51.230;-2.322;2022-07-06T20:27:57;7.95;;;1.35;;
65077;SDS011;51672;51.230;-2.322;2022-07-06T20:35:29;6.97;;;0.97;;
65077;SDS011;51672;51.230;-2.322;2022-07-06T20:39:11;6.18;;;0.90;;
65077;SDS011;51672;51.230;-2.322;2022-07-06T20:42:53;4.40;;;0.98;;
65077;SDS011;51672;51.230;-2.322;2022-07-06T20:46:55;6.60;;;1.10;;
65077;SDS011;51672;51.230;-2.322;2022-07-06T20:50:37;5.70;;;0.98;;
65077;SDS011;51672;51.230;-2.322;2022-07-06T20:54:19;6.32;;;1.00;;
65077;SDS011;51672;51.230;-2.322;2022-07-06T20:58:02;6.18;;;1.65;;
65077;SDS011;51672;51.230;-2.322;2022-07-06T21:01:46;6.60;;;0.90;;
65077;SDS011;51672;51.230;-2.322;2022-07-06T21:05:28;6.93;;;1.48;;
65077;SDS011;51672;51.230;-2.322;2022-07-06T21:09:10;6.32;;;1.50;;
65077;SDS011;51672;51.230;-2.322;2022-07-06T21:12:52;6.50;;;1.27;;
65077;SDS011;51672;51.230;-2.322;2022-07-06T21:16:34;6.38;;;1.63;;
65077;SDS011;51672;51.230;-2.322;2022-07-06T21:20:16;4.45;;;0.98;;
65077;SDS011;51672;51.230;-2.322;2022-07-06T21:23:58;7.97;;;1.58;;
65077;SDS011;51672;51.230;-2.322;2022-07-06T21:27:40;5.20;;;1.25;;
65077;SDS011;51672;51.230;-2.322;2022-07-06T21:31:22;8.80;;;1.50;;
65077;SDS011;51672;51.230;-2.322;2022-07-06T21:35:04;6.85;;;1.42;;
65077;SDS011;51672;51.230;-2.322;2022-07-06T21:38:47;6.80;;;1.50;;
65077;SDS011;51672;51.230;-2.322;2022-07-06T21:42:29;6.85;;;1.48;;
65077;SDS011;51672;51.230;-2.322;2022-07-06T21:46:11;11.70;;;1.48;;
65077;SDS011;51672;51.230;-2.322;2022-07-06T21:49:53;7.13;;;1.80;;
65077;SDS011;51672;51.230;-2.322;2022-07-06T21:53:35;6.22;;;1.40;;
65077;SDS011;51672;51.230;-2.322;2022-07-06T21:57:17;7.38;;;1.23;;
65077;SDS011;51672;51.230;-2.322;2022-07-06T22:01:02;6.40;;;1.30;;
65077;SDS011;51672;51.230;-2.322;2022-07-06T22:04:44;6.82;;;1.88;;
65077;SDS011;51672;51.230;-2.322;2022-07-06T22:08:27;8.52;;;1.70;;
65077;SDS011;51672;51.230;-2.322;2022-07-06T22:12:09;7.13;;;1.63;;
65077;SDS011;51672;51.230;-2.322;2022-07-06T22:15:51;8.73;;;1.47;;
65077;SDS011;51672;51.230;-2.322;2022-07-06T22:19:33;8.82;;;1.75;;
65077;SDS011;51672;51.230;-2.322;2022-07-06T22:23:15;9.10;;;1.67;;
65077;SDS011;51672;51.230;-2.322;2022-07-06T22:26:57;8.73;;;1.63;;
65077;SDS011;51672;51.230;-2.322;2022-07-06T22:30:39;6.13;;;1.40;;
65077;SDS011;51672;51.230;-2.322;2022-07-06T22:34:22;7.45;;;1.77;;
65077;SDS011;51672;51.230;-2.322;2022-07-06T22:38:04;8.15;;;1.98;;
65077;SDS011;51672;51.230;-2.322;2022-07-06T22:41:46;7.55;;;1.83;;
65077;SDS011;51672;51.230;-2.322;2022-07-06T22:45:28;7.60;;;2.10;;
65077;SDS011;51672;51.230;-2.322;2022-07-06T22:49:10;11.18;;;2.20;;
65077;SDS011;51672;51.230;-2.322;2022-07-06T22:52:53;8.00;;;1.87;;
65077;SDS011;51672;51.230;-2.322;2022-07-06T22:56:35;9.20;;;1.92;;
65077;SDS011;51672;51.230;-2.322;2022-07-06T23:00:17;7.25;;;1.80;;
65077;SDS011;51672;51.230;-2.322;2022-07-06T23:03:59;5.83;;;1.60;;
65077;SDS011;51672;51.230;-2.322;2022-07-06T23:07:42;7.13;;;1.70;;
65077;SDS011;51672;51.230;-2.322;2022-07-06T23:11:24;7.75;;;1.55;;
65077;SDS011;51672;51.230;-2.322;2022-07-06T23:15:06;8.55;;;1.80;;
65077;SDS011;51672;51.230;-2.322;2022-07-06T23:18:49;8.02;;;2.28;;
65077;SDS011;51672;51.230;-2.322;2022-07-06T23:22:31;8.93;;;2.03;;
65077;SDS011;51672;51.230;-2.322;2022-07-06T23:26:14;6.53;;;1.80;;
65077;SDS011;51672;51.230;-2.322;2022-07-06T23:29:56;7.97;;;1.80;;
65077;SDS011;51672;51.230;-2.322;2022-07-06T23:33:38;10.07;;;2.00;;
65077;SDS011;51672;51.230;-2.322;2022-07-06T23:37:20;7.50;;;1.80;;
65077;SDS011;51672;51.230;-2.322;2022-07-06T23:41:03;8.53;;;1.80;;
65077;SDS011;51672;51.230;-2.322;2022-07-06T23:44:45;7.43;;;1.83;;
65077;SDS011;51672;51.230;-2.322;2022-07-06T23:48:27;5.63;;;2.05;;
65077;SDS011;51672;51.230;-2.322;2022-07-06T23:52:09;6.47;;;1.90;;
65077;SDS011;51672;51.230;-2.322;2022-07-06T23:55:52;7.38;;;1.95;;
65077;SDS011;51672;51.230;-2.322;2022-07-06T23:59:34;6.38;;;2.15;;
